sensor_id;sensor_type;location;lat;lon;timestamp;temperature;humidity
44190;DHT22;29856;52.144;5.430;2022-10-30T00:01:22;16.10;99.90
44190;DHT22;29856;52.144;5.430;2022-10-30T00:03:48;16.00;99.90
44190;DHT22;29856;52.144;5.430;2022-10-30T00:06:13;16.00;99.90
44190;DHT22;29856;52.144;5.430;2022-10-30T00:08:38;16.00;99.90
44190;DHT22;29856;52.144;5.430;2022-10-30T00:11:09;16.00;99.90
44190;DHT22;29856;52.144;5.430;2022-10-30T00:13:35;16.00;99.90
44190;DHT22;29856;52.144;5.430;2022-10-30T00:16:03;15.90;99.90
44190;DHT22;29856;52.144;5.430;2022-10-30T00:18:29;15.90;99.90
44190;DHT22;29856;52.144;5.430;2022-10-30T00:20:55;15.80;99.90
44190;DHT22;29856;52.144;5.430;2022-10-30T00:23:20;15.80;99.90
44190;DHT22;29856;52.144;5.430;2022-10-30T00:25:46;15.80;99.90
44190;DHT22;29856;52.144;5.430;2022-10-30T00:28:11;15.90;99.90
44190;DHT22;29856;52.144;5.430;2022-10-30T00:30:37;15.90;99.90
44190;DHT22;29856;52.144;5.430;2022-10-30T00:33:03;15.90;99.90
44190;DHT22;29856;52.144;5.430;2022-10-30T00:35:29;15.90;99.90
44190;DHT22;29856;52.144;5.430;2022-10-30T00:37:54;15.90;99.90
44190;DHT22;29856;52.144;5.430;2022-10-30T00:40:20;15.90;99.90
44190;DHT22;29856;52.144;5.430;2022-10-30T00:42:46;15.80;99.90
44190;DHT22;29856;52.144;5.430;2022-10-30T00:45:13;15.90;99.90
44190;DHT22;29856;52.144;5.430;2022-10-30T00:47:44;15.90;99.90
44190;DHT22;29856;52.144;5.430;2022-10-30T00:50:25;15.90;99.90
44190;DHT22;29856;52.144;5.430;2022-10-30T00:53:07;15.80;99.90
44190;DHT22;29856;52.144;5.430;2022-10-30T00:58:14;15.90;99.90
44190;DHT22;29856;52.144;5.430;2022-10-30T01:00:43;15.90;99.90
44190;DHT22;29856;52.144;5.430;2022-10-30T01:03:11;15.90;99.90
44190;DHT22;29856;52.144;5.430;2022-10-30T01:05:37;15.80;99.90
44190;DHT22;29856;52.144;5.430;2022-10-30T01:08:03;15.80;99.90
44190;DHT22;29856;52.144;5.430;2022-10-30T01:10:29;15.80;99.90
44190;DHT22;29856;52.144;5.430;2022-10-30T01:12:55;15.80;99.90
44190;DHT22;29856;52.144;5.430;2022-10-30T01:15:27;15.80;99.90
44190;DHT22;29856;52.144;5.430;2022-10-30T01:27:26;15.60;99.90
44190;DHT22;29856;52.144;5.430;2022-10-30T01:32:46;15.60;99.90
44190;DHT22;29856;52.144;5.430;2022-10-30T01:35:18;15.60;99.90
44190;DHT22;29856;52.144;5.430;2022-10-30T01:37:52;15.60;99.90
44190;DHT22;29856;52.144;5.430;2022-10-30T01:40:19;15.60;99.90
44190;DHT22;29856;52.144;5.430;2022-10-30T01:48:26;15.50;99.90
44190;DHT22;29856;52.144;5.430;2022-10-30T01:58:49;15.40;99.90
44190;DHT22;29856;52.144;5.430;2022-10-30T02:01:15;15.50;99.90
44190;DHT22;29856;52.144;5.430;2022-10-30T02:03:41;15.40;99.90
44190;DHT22;29856;52.144;5.430;2022-10-30T02:06:07;15.40;99.90
44190;DHT22;29856;52.144;5.430;2022-10-30T02:08:32;15.40;99.90
44190;DHT22;29856;52.144;5.430;2022-10-30T02:10:58;15.40;99.90
44190;DHT22;29856;52.144;5.430;2022-10-30T02:13:24;15.30;99.90
44190;DHT22;29856;52.144;5.430;2022-10-30T02:15:49;15.40;99.90
44190;DHT22;29856;52.144;5.430;2022-10-30T02:18:15;15.40;99.90
44190;DHT22;29856;52.144;5.430;2022-10-30T02:20:41;15.30;99.90
44190;DHT22;29856;52.144;5.430;2022-10-30T02:23:07;15.30;99.90
44190;DHT22;29856;52.144;5.430;2022-10-30T02:25:32;15.20;99.90
44190;DHT22;29856;52.144;5.430;2022-10-30T02:27:57;15.30;99.90
44190;DHT22;29856;52.144;5.430;2022-10-30T02:30:23;15.20;99.90
44190;DHT22;29856;52.144;5.430;2022-10-30T02:32:48;15.20;99.90
44190;DHT22;29856;52.144;5.430;2022-10-30T02:35:14;15.20;99.90
44190;DHT22;29856;52.144;5.430;2022-10-30T02:37:39;15.20;99.90
44190;DHT22;29856;52.144;5.430;2022-10-30T02:40:06;15.20;99.90
44190;DHT22;29856;52.144;5.430;2022-10-30T02:42:31;15.10;99.90
44190;DHT22;29856;52.144;5.430;2022-10-30T02:44:57;15.10;99.90
44190;DHT22;29856;52.144;5.430;2022-10-30T02:47:22;15.10;99.90
44190;DHT22;29856;52.144;5.430;2022-10-30T02:49:48;15.10;99.90
44190;DHT22;29856;52.144;5.430;2022-10-30T02:52:13;15.10;99.90
44190;DHT22;29856;52.144;5.430;2022-10-30T02:54:39;15.10;99.90
44190;DHT22;29856;52.144;5.430;2022-10-30T02:57:04;15.10;99.90
44190;DHT22;29856;52.144;5.430;2022-10-30T02:59:29;15.10;99.90
44190;DHT22;29856;52.144;5.430;2022-10-30T03:01:55;15.00;99.90
44190;DHT22;29856;52.144;5.430;2022-10-30T03:04:21;15.00;99.90
44190;DHT22;29856;52.144;5.430;2022-10-30T03:06:46;15.00;99.90
44190;DHT22;29856;52.144;5.430;2022-10-30T03:09:12;15.00;99.90
44190;DHT22;29856;52.144;5.430;2022-10-30T03:11:37;14.90;99.90
44190;DHT22;29856;52.144;5.430;2022-10-30T03:14:03;14.90;99.90
44190;DHT22;29856;52.144;5.430;2022-10-30T03:16:28;14.90;99.90
44190;DHT22;29856;52.144;5.430;2022-10-30T03:18:54;14.90;99.90
44190;DHT22;29856;52.144;5.430;2022-10-30T03:21:22;14.90;99.90
44190;DHT22;29856;52.144;5.430;2022-10-30T03:23:48;14.80;99.90
44190;DHT22;29856;52.144;5.430;2022-10-30T03:26:14;14.80;99.90
44190;DHT22;29856;52.144;5.430;2022-10-30T03:28:39;14.80;99.90
44190;DHT22;29856;52.144;5.430;2022-10-30T03:31:08;14.70;99.90
44190;DHT22;29856;52.144;5.430;2022-10-30T03:33:34;14.70;99.90
44190;DHT22;29856;52.144;5.430;2022-10-30T03:36:00;14.70;99.90
44190;DHT22;29856;52.144;5.430;2022-10-30T03:38:26;14.70;99.90
44190;DHT22;29856;52.144;5.430;2022-10-30T03:40:51;14.70;99.90
44190;DHT22;29856;52.144;5.430;2022-10-30T03:43:17;14.60;99.90
44190;DHT22;29856;52.144;5.430;2022-10-30T03:45:47;14.50;99.90
44190;DHT22;29856;52.144;5.430;2022-10-30T03:48:12;14.50;99.90
44190;DHT22;29856;52.144;5.430;2022-10-30T03:50:38;14.50;99.90
44190;DHT22;29856;52.144;5.430;2022-10-30T03:53:03;14.50;99.90
44190;DHT22;29856;52.144;5.430;2022-10-30T03:55:29;14.50;99.90
44190;DHT22;29856;52.144;5.430;2022-10-30T03:57:54;14.40;99.90
44190;DHT22;29856;52.144;5.430;2022-10-30T04:00:20;14.30;99.90
44190;DHT22;29856;52.144;5.430;2022-10-30T04:02:47;14.30;99.90
44190;DHT22;29856;52.144;5.430;2022-10-30T04:05:14;14.30;99.90
44190;DHT22;29856;52.144;5.430;2022-10-30T04:07:40;14.30;99.90
44190;DHT22;29856;52.144;5.430;2022-10-30T04:10:06;14.30;99.90
44190;DHT22;29856;52.144;5.430;2022-10-30T04:12:31;14.20;99.90
44190;DHT22;29856;52.144;5.430;2022-10-30T04:14:57;14.20;99.90
44190;DHT22;29856;52.144;5.430;2022-10-30T04:17:22;14.20;99.90
44190;DHT22;29856;52.144;5.430;2022-10-30T04:19:48;14.20;99.90
44190;DHT22;29856;52.144;5.430;2022-10-30T04:22:13;14.20;99.90
44190;DHT22;29856;52.144;5.430;2022-10-30T04:24:39;14.20;99.90
44190;DHT22;29856;52.144;5.430;2022-10-30T04:27:04;14.10;99.90
44190;DHT22;29856;52.144;5.430;2022-10-30T04:29:30;14.20;99.90
44190;DHT22;29856;52.144;5.430;2022-10-30T04:31:56;14.20;99.90
44190;DHT22;29856;52.144;5.430;2022-10-30T04:34:21;14.20;99.90
44190;DHT22;29856;52.144;5.430;2022-10-30T04:36:46;14.20;99.90
44190;DHT22;29856;52.144;5.430;2022-10-30T04:39:12;14.20;99.90
44190;DHT22;29856;52.144;5.430;2022-10-30T04:41:38;14.20;99.90
44190;DHT22;29856;52.144;5.430;2022-10-30T04:44:03;14.30;99.90
44190;DHT22;29856;52.144;5.430;2022-10-30T04:46:30;14.30;99.90
44190;DHT22;29856;52.144;5.430;2022-10-30T04:48:56;14.30;99.90
44190;DHT22;29856;52.144;5.430;2022-10-30T04:51:22;14.30;99.90
44190;DHT22;29856;52.144;5.430;2022-10-30T04:53:47;14.30;99.90
44190;DHT22;29856;52.144;5.430;2022-10-30T04:56:13;14.30;99.90
44190;DHT22;29856;52.144;5.430;2022-10-30T04:58:39;14.30;99.90
44190;DHT22;29856;52.144;5.430;2022-10-30T05:01:05;14.30;99.90
44190;DHT22;29856;52.144;5.430;2022-10-30T05:03:31;14.30;99.90
44190;DHT22;29856;52.144;5.430;2022-10-30T05:06:01;14.30;99.90
44190;DHT22;29856;52.144;5.430;2022-10-30T05:08:28;14.30;99.90
44190;DHT22;29856;52.144;5.430;2022-10-30T05:10:54;14.30;99.90
44190;DHT22;29856;52.144;5.430;2022-10-30T05:13:20;14.30;99.90
44190;DHT22;29856;52.144;5.430;2022-10-30T05:15:45;14.30;99.90
44190;DHT22;29856;52.144;5.430;2022-10-30T05:18:11;14.30;99.90
44190;DHT22;29856;52.144;5.430;2022-10-30T05:20:36;14.30;99.90
44190;DHT22;29856;52.144;5.430;2022-10-30T05:23:02;14.30;99.90
44190;DHT22;29856;52.144;5.430;2022-10-30T05:25:28;14.30;99.90
44190;DHT22;29856;52.144;5.430;2022-10-30T05:28:01;14.20;99.90
44190;DHT22;29856;52.144;5.430;2022-10-30T05:30:28;14.20;99.90
44190;DHT22;29856;52.144;5.430;2022-10-30T05:33:13;14.20;99.90
44190;DHT22;29856;52.144;5.430;2022-10-30T05:35:38;14.10;99.90
44190;DHT22;29856;52.144;5.430;2022-10-30T05:38:05;14.10;99.90
44190;DHT22;29856;52.144;5.430;2022-10-30T05:40:32;14.00;99.90
44190;DHT22;29856;52.144;5.430;2022-10-30T05:42:58;14.00;99.90
44190;DHT22;29856;52.144;5.430;2022-10-30T05:45:24;14.00;99.90
44190;DHT22;29856;52.144;5.430;2022-10-30T05:47:56;13.90;99.90
44190;DHT22;29856;52.144;5.430;2022-10-30T05:50:22;13.90;99.90
44190;DHT22;29856;52.144;5.430;2022-10-30T05:52:48;13.90;99.90
44190;DHT22;29856;52.144;5.430;2022-10-30T05:55:13;13.80;99.90
44190;DHT22;29856;52.144;5.430;2022-10-30T05:57:39;13.80;99.90
44190;DHT22;29856;52.144;5.430;2022-10-30T06:00:05;13.80;99.90
44190;DHT22;29856;52.144;5.430;2022-10-30T06:02:31;13.70;99.90
44190;DHT22;29856;52.144;5.430;2022-10-30T06:04:56;13.70;99.90
44190;DHT22;29856;52.144;5.430;2022-10-30T06:07:22;13.70;99.90
44190;DHT22;29856;52.144;5.430;2022-10-30T06:09:47;13.70;99.90
44190;DHT22;29856;52.144;5.430;2022-10-30T06:12:13;13.70;99.90
44190;DHT22;29856;52.144;5.430;2022-10-30T06:14:38;13.70;99.90
44190;DHT22;29856;52.144;5.430;2022-10-30T06:17:04;13.70;99.90
44190;DHT22;29856;52.144;5.430;2022-10-30T06:19:29;13.70;99.90
44190;DHT22;29856;52.144;5.430;2022-10-30T06:21:54;13.70;99.90
44190;DHT22;29856;52.144;5.430;2022-10-30T06:24:20;13.70;99.90
44190;DHT22;29856;52.144;5.430;2022-10-30T06:26:45;13.70;99.90
44190;DHT22;29856;52.144;5.430;2022-10-30T06:29:11;13.80;99.90
44190;DHT22;29856;52.144;5.430;2022-10-30T06:31:36;13.80;99.90
44190;DHT22;29856;52.144;5.430;2022-10-30T06:34:02;13.80;99.90
44190;DHT22;29856;52.144;5.430;2022-10-30T06:36:27;13.80;99.90
44190;DHT22;29856;52.144;5.430;2022-10-30T06:38:53;13.80;99.90
44190;DHT22;29856;52.144;5.430;2022-10-30T06:41:18;13.80;99.90
44190;DHT22;29856;52.144;5.430;2022-10-30T06:43:44;13.70;99.90
44190;DHT22;29856;52.144;5.430;2022-10-30T06:46:09;13.70;99.90
44190;DHT22;29856;52.144;5.430;2022-10-30T06:48:34;13.70;99.90
44190;DHT22;29856;52.144;5.430;2022-10-30T06:51:00;13.70;99.90
44190;DHT22;29856;52.144;5.430;2022-10-30T06:53:25;13.70;99.90
44190;DHT22;29856;52.144;5.430;2022-10-30T06:55:58;13.70;99.90
44190;DHT22;29856;52.144;5.430;2022-10-30T06:58:24;13.70;99.90
44190;DHT22;29856;52.144;5.430;2022-10-30T07:00:49;13.70;99.90
44190;DHT22;29856;52.144;5.430;2022-10-30T07:03:15;13.70;99.90
44190;DHT22;29856;52.144;5.430;2022-10-30T07:05:41;13.60;99.90
44190;DHT22;29856;52.144;5.430;2022-10-30T07:08:07;13.60;99.90
44190;DHT22;29856;52.144;5.430;2022-10-30T07:10:32;13.60;99.90
44190;DHT22;29856;52.144;5.430;2022-10-30T07:12:58;13.50;99.90
44190;DHT22;29856;52.144;5.430;2022-10-30T07:15:24;13.50;99.90
44190;DHT22;29856;52.144;5.430;2022-10-30T07:17:57;13.50;99.90
44190;DHT22;29856;52.144;5.430;2022-10-30T07:20:24;13.60;99.90
44190;DHT22;29856;52.144;5.430;2022-10-30T07:22:50;13.60;99.90
44190;DHT22;29856;52.144;5.430;2022-10-30T07:25:16;13.60;99.90
44190;DHT22;29856;52.144;5.430;2022-10-30T07:27:46;13.60;99.90
44190;DHT22;29856;52.144;5.430;2022-10-30T07:30:13;13.70;99.90
44190;DHT22;29856;52.144;5.430;2022-10-30T07:32:39;13.70;99.90
44190;DHT22;29856;52.144;5.430;2022-10-30T07:35:05;13.70;99.90
44190;DHT22;29856;52.144;5.430;2022-10-30T07:37:31;13.80;99.90
44190;DHT22;29856;52.144;5.430;2022-10-30T07:39:56;13.80;99.90
44190;DHT22;29856;52.144;5.430;2022-10-30T07:42:22;13.80;99.90
44190;DHT22;29856;52.144;5.430;2022-10-30T07:44:47;13.80;99.90
44190;DHT22;29856;52.144;5.430;2022-10-30T07:47:13;13.90;99.90
44190;DHT22;29856;52.144;5.430;2022-10-30T07:49:38;13.90;99.90
44190;DHT22;29856;52.144;5.430;2022-10-30T07:52:04;14.00;99.90
44190;DHT22;29856;52.144;5.430;2022-10-30T07:54:29;14.00;99.90
44190;DHT22;29856;52.144;5.430;2022-10-30T07:56:54;14.10;99.90
44190;DHT22;29856;52.144;5.430;2022-10-30T07:59:20;14.10;99.90
44190;DHT22;29856;52.144;5.430;2022-10-30T08:01:45;14.20;99.90
44190;DHT22;29856;52.144;5.430;2022-10-30T08:04:11;14.20;99.90
44190;DHT22;29856;52.144;5.430;2022-10-30T08:06:36;14.30;99.90
44190;DHT22;29856;52.144;5.430;2022-10-30T08:09:02;14.30;99.90
44190;DHT22;29856;52.144;5.430;2022-10-30T08:11:27;14.40;99.90
44190;DHT22;29856;52.144;5.430;2022-10-30T08:13:53;14.40;99.90
44190;DHT22;29856;52.144;5.430;2022-10-30T08:16:18;14.50;99.90
44190;DHT22;29856;52.144;5.430;2022-10-30T08:18:43;14.60;99.90
44190;DHT22;29856;52.144;5.430;2022-10-30T08:21:09;14.60;99.90
44190;DHT22;29856;52.144;5.430;2022-10-30T08:23:35;14.70;99.90
44190;DHT22;29856;52.144;5.430;2022-10-30T08:26:00;14.70;99.90
44190;DHT22;29856;52.144;5.430;2022-10-30T08:28:26;14.80;99.90
44190;DHT22;29856;52.144;5.430;2022-10-30T08:30:51;14.90;99.90
44190;DHT22;29856;52.144;5.430;2022-10-30T08:33:17;14.90;99.90
44190;DHT22;29856;52.144;5.430;2022-10-30T08:35:47;15.00;99.90
44190;DHT22;29856;52.144;5.430;2022-10-30T08:38:13;15.10;99.90
44190;DHT22;29856;52.144;5.430;2022-10-30T08:40:38;15.20;99.90
44190;DHT22;29856;52.144;5.430;2022-10-30T08:43:03;15.30;99.90
44190;DHT22;29856;52.144;5.430;2022-10-30T08:45:29;15.40;99.90
44190;DHT22;29856;52.144;5.430;2022-10-30T08:47:59;15.50;99.90
44190;DHT22;29856;52.144;5.430;2022-10-30T08:50:25;15.60;99.90
44190;DHT22;29856;52.144;5.430;2022-10-30T08:52:51;15.70;99.90
44190;DHT22;29856;52.144;5.430;2022-10-30T08:55:16;15.80;99.90
44190;DHT22;29856;52.144;5.430;2022-10-30T08:57:41;15.90;99.90
44190;DHT22;29856;52.144;5.430;2022-10-30T09:00:07;16.00;99.90
44190;DHT22;29856;52.144;5.430;2022-10-30T09:02:35;16.10;99.90
44190;DHT22;29856;52.144;5.430;2022-10-30T09:05:01;16.20;99.90
44190;DHT22;29856;52.144;5.430;2022-10-30T09:07:26;16.30;99.90
44190;DHT22;29856;52.144;5.430;2022-10-30T09:09:52;16.40;99.90
44190;DHT22;29856;52.144;5.430;2022-10-30T09:12:17;16.50;99.90
44190;DHT22;29856;52.144;5.430;2022-10-30T09:14:43;16.50;99.90
44190;DHT22;29856;52.144;5.430;2022-10-30T09:17:08;16.60;99.90
44190;DHT22;29856;52.144;5.430;2022-10-30T09:19:34;16.70;99.90
44190;DHT22;29856;52.144;5.430;2022-10-30T09:21:59;16.80;99.90
44190;DHT22;29856;52.144;5.430;2022-10-30T09:24:25;17.00;99.90
44190;DHT22;29856;52.144;5.430;2022-10-30T09:26:50;17.00;99.90
44190;DHT22;29856;52.144;5.430;2022-10-30T09:29:16;17.10;99.90
44190;DHT22;29856;52.144;5.430;2022-10-30T09:31:41;17.20;99.90
44190;DHT22;29856;52.144;5.430;2022-10-30T09:34:07;17.30;99.90
44190;DHT22;29856;52.144;5.430;2022-10-30T09:36:32;17.50;99.90
44190;DHT22;29856;52.144;5.430;2022-10-30T09:38:58;17.50;99.90
44190;DHT22;29856;52.144;5.430;2022-10-30T09:57:42;18.10;99.90
44190;DHT22;29856;52.144;5.430;2022-10-30T10:00:21;18.20;99.90
44190;DHT22;29856;52.144;5.430;2022-10-30T10:05:45;18.20;99.90
44190;DHT22;29856;52.144;5.430;2022-10-30T10:08:20;18.20;99.90
44190;DHT22;29856;52.144;5.430;2022-10-30T10:10:53;18.20;99.90
44190;DHT22;29856;52.144;5.430;2022-10-30T10:15:49;18.30;99.90
44190;DHT22;29856;52.144;5.430;2022-10-30T10:18:24;18.40;99.90
44190;DHT22;29856;52.144;5.430;2022-10-30T10:20:52;18.50;99.90
44190;DHT22;29856;52.144;5.430;2022-10-30T10:25:56;18.70;99.90
44190;DHT22;29856;52.144;5.430;2022-10-30T10:28:46;18.80;99.90
44190;DHT22;29856;52.144;5.430;2022-10-30T10:42:02;19.20;99.90
44190;DHT22;29856;52.144;5.430;2022-10-30T10:50:11;19.40;99.90
44190;DHT22;29856;52.144;5.430;2022-10-30T10:52:42;19.40;99.90
44190;DHT22;29856;52.144;5.430;2022-10-30T10:55:27;19.50;99.90
44190;DHT22;29856;52.144;5.430;2022-10-30T10:57:57;19.50;99.90
44190;DHT22;29856;52.144;5.430;2022-10-30T11:00:23;19.70;99.90
44190;DHT22;29856;52.144;5.430;2022-10-30T11:02:59;19.70;99.90
44190;DHT22;29856;52.144;5.430;2022-10-30T11:05:34;19.80;99.90
44190;DHT22;29856;52.144;5.430;2022-10-30T11:08:10;19.80;99.90
44190;DHT22;29856;52.144;5.430;2022-10-30T11:10:36;19.90;99.90
44190;DHT22;29856;52.144;5.430;2022-10-30T11:13:02;19.90;99.90
44190;DHT22;29856;52.144;5.430;2022-10-30T11:18:04;20.00;99.90
44190;DHT22;29856;52.144;5.430;2022-10-30T11:20:53;20.10;99.90
44190;DHT22;29856;52.144;5.430;2022-10-30T11:23:40;20.20;99.90
44190;DHT22;29856;52.144;5.430;2022-10-30T11:31:28;20.30;99.90
44190;DHT22;29856;52.144;5.430;2022-10-30T11:33:54;20.40;99.90
44190;DHT22;29856;52.144;5.430;2022-10-30T11:36:24;20.50;99.90
44190;DHT22;29856;52.144;5.430;2022-10-30T11:38:50;20.50;99.90
44190;DHT22;29856;52.144;5.430;2022-10-30T11:41:17;20.50;99.90
44190;DHT22;29856;52.144;5.430;2022-10-30T11:43:44;20.60;99.90
44190;DHT22;29856;52.144;5.430;2022-10-30T11:46:19;20.70;99.90
44190;DHT22;29856;52.144;5.430;2022-10-30T11:48:46;20.80;99.90
44190;DHT22;29856;52.144;5.430;2022-10-30T11:51:12;20.70;99.90
44190;DHT22;29856;52.144;5.430;2022-10-30T11:53:46;20.60;99.90
44190;DHT22;29856;52.144;5.430;2022-10-30T11:56:20;20.70;99.90
44190;DHT22;29856;52.144;5.430;2022-10-30T11:58:49;20.80;99.90
44190;DHT22;29856;52.144;5.430;2022-10-30T12:01:36;20.80;99.90
44190;DHT22;29856;52.144;5.430;2022-10-30T12:04:22;20.80;99.90
44190;DHT22;29856;52.144;5.430;2022-10-30T12:07:17;20.80;99.90
44190;DHT22;29856;52.144;5.430;2022-10-30T12:09:45;20.80;99.90
44190;DHT22;29856;52.144;5.430;2022-10-30T12:14:47;20.80;99.90
44190;DHT22;29856;52.144;5.430;2022-10-30T12:17:15;20.70;99.90
44190;DHT22;29856;52.144;5.430;2022-10-30T12:19:53;20.70;99.90
44190;DHT22;29856;52.144;5.430;2022-10-30T12:22:30;20.80;99.90
44190;DHT22;29856;52.144;5.430;2022-10-30T12:24:57;20.80;99.90
44190;DHT22;29856;52.144;5.430;2022-10-30T12:27:24;20.80;99.90
44190;DHT22;29856;52.144;5.430;2022-10-30T12:30:06;20.80;99.90
44190;DHT22;29856;52.144;5.430;2022-10-30T12:32:39;20.80;99.90
44190;DHT22;29856;52.144;5.430;2022-10-30T12:35:58;20.80;99.90
44190;DHT22;29856;52.144;5.430;2022-10-30T12:38:55;20.80;99.90
44190;DHT22;29856;52.144;5.430;2022-10-30T12:41:34;20.80;99.90
44190;DHT22;29856;52.144;5.430;2022-10-30T12:44:11;20.70;99.90
44190;DHT22;29856;52.144;5.430;2022-10-30T12:49:27;20.80;99.90
44190;DHT22;29856;52.144;5.430;2022-10-30T12:52:02;20.80;99.90
44190;DHT22;29856;52.144;5.430;2022-10-30T12:54:38;20.80;99.90
44190;DHT22;29856;52.144;5.430;2022-10-30T12:57:15;20.80;99.90
44190;DHT22;29856;52.144;5.430;2022-10-30T13:05:04;20.80;99.90
44190;DHT22;29856;52.144;5.430;2022-10-30T13:08:03;20.90;99.90
44190;DHT22;29856;52.144;5.430;2022-10-30T13:10:42;20.90;99.90
44190;DHT22;29856;52.144;5.430;2022-10-30T13:13:15;20.90;99.90
44190;DHT22;29856;52.144;5.430;2022-10-30T13:15:53;20.80;99.90
44190;DHT22;29856;52.144;5.430;2022-10-30T13:18:22;20.90;99.90
44190;DHT22;29856;52.144;5.430;2022-10-30T13:20:58;20.90;99.90
44190;DHT22;29856;52.144;5.430;2022-10-30T13:23:34;21.00;99.90
44190;DHT22;29856;52.144;5.430;2022-10-30T13:26:21;21.00;99.90
44190;DHT22;29856;52.144;5.430;2022-10-30T13:31:46;20.80;99.90
44190;DHT22;29856;52.144;5.430;2022-10-30T13:34:30;20.80;99.90
44190;DHT22;29856;52.144;5.430;2022-10-30T13:37:56;20.80;99.90
44190;DHT22;29856;52.144;5.430;2022-10-30T13:43:00;20.80;99.90
44190;DHT22;29856;52.144;5.430;2022-10-30T13:53:39;21.00;99.90
44190;DHT22;29856;52.144;5.430;2022-10-30T13:56:13;21.00;99.90
44190;DHT22;29856;52.144;5.430;2022-10-30T14:02:02;21.00;99.90
44190;DHT22;29856;52.144;5.430;2022-10-30T14:04:41;21.00;99.90
44190;DHT22;29856;52.144;5.430;2022-10-30T14:07:18;21.00;99.90
44190;DHT22;29856;52.144;5.430;2022-10-30T14:10:07;21.00;99.90
44190;DHT22;29856;52.144;5.430;2022-10-30T14:15:45;21.00;99.90
44190;DHT22;29856;52.144;5.430;2022-10-30T14:20:46;20.90;99.90
44190;DHT22;29856;52.144;5.430;2022-10-30T14:23:14;20.80;99.90
44190;DHT22;29856;52.144;5.430;2022-10-30T14:28:43;20.80;99.90
44190;DHT22;29856;52.144;5.430;2022-10-30T14:31:19;20.80;99.90
44190;DHT22;29856;52.144;5.430;2022-10-30T14:33:57;20.80;99.90
44190;DHT22;29856;52.144;5.430;2022-10-30T14:36:23;20.80;99.90
44190;DHT22;29856;52.144;5.430;2022-10-30T14:49:53;20.80;99.90
44190;DHT22;29856;52.144;5.430;2022-10-30T14:55:04;20.80;99.90
44190;DHT22;29856;52.144;5.430;2022-10-30T15:05:46;20.80;99.90
44190;DHT22;29856;52.144;5.430;2022-10-30T15:14:41;20.70;99.90
44190;DHT22;29856;52.144;5.430;2022-10-30T15:17:28;20.60;99.90
44190;DHT22;29856;52.144;5.430;2022-10-30T15:19:54;20.60;99.90
44190;DHT22;29856;52.144;5.430;2022-10-30T15:22:22;20.50;99.90
44190;DHT22;29856;52.144;5.430;2022-10-30T15:24:50;20.50;99.90
44190;DHT22;29856;52.144;5.430;2022-10-30T15:27:18;20.50;99.90
44190;DHT22;29856;52.144;5.430;2022-10-30T15:29:55;20.50;99.90
44190;DHT22;29856;52.144;5.430;2022-10-30T15:32:23;20.50;99.90
44190;DHT22;29856;52.144;5.430;2022-10-30T15:35:00;20.50;99.90
44190;DHT22;29856;52.144;5.430;2022-10-30T15:37:26;20.50;99.90
44190;DHT22;29856;52.144;5.430;2022-10-30T15:40:18;20.40;99.90
44190;DHT22;29856;52.144;5.430;2022-10-30T15:42:46;20.30;99.90
44190;DHT22;29856;52.144;5.430;2022-10-30T15:45:18;20.30;99.90
44190;DHT22;29856;52.144;5.430;2022-10-30T15:47:46;20.20;99.90
44190;DHT22;29856;52.144;5.430;2022-10-30T15:50:14;20.10;99.90
44190;DHT22;29856;52.144;5.430;2022-10-30T15:52:41;20.10;99.90
44190;DHT22;29856;52.144;5.430;2022-10-30T15:55:15;20.10;99.90
44190;DHT22;29856;52.144;5.430;2022-10-30T15:57:44;20.00;99.90
44190;DHT22;29856;52.144;5.430;2022-10-30T16:00:35;20.00;99.90
44190;DHT22;29856;52.144;5.430;2022-10-30T16:03:22;19.90;99.90
44190;DHT22;29856;52.144;5.430;2022-10-30T16:05:47;19.90;99.90
44190;DHT22;29856;52.144;5.430;2022-10-30T16:08:23;19.70;99.90
44190;DHT22;29856;52.144;5.430;2022-10-30T16:10:51;19.70;99.90
44190;DHT22;29856;52.144;5.430;2022-10-30T16:13:22;19.70;99.90
44190;DHT22;29856;52.144;5.430;2022-10-30T16:15:48;19.60;99.90
44190;DHT22;29856;52.144;5.430;2022-10-30T16:20:41;19.50;99.90
44190;DHT22;29856;52.144;5.430;2022-10-30T16:23:07;19.40;99.90
44190;DHT22;29856;52.144;5.430;2022-10-30T16:25:33;19.30;99.90
44190;DHT22;29856;52.144;5.430;2022-10-30T16:27:59;19.20;99.90
44190;DHT22;29856;52.144;5.430;2022-10-30T16:30:24;19.10;99.90
44190;DHT22;29856;52.144;5.430;2022-10-30T16:32:50;19.00;99.90
44190;DHT22;29856;52.144;5.430;2022-10-30T16:35:18;19.00;99.90
44190;DHT22;29856;52.144;5.430;2022-10-30T16:37:45;18.90;99.90
44190;DHT22;29856;52.144;5.430;2022-10-30T16:40:23;18.90;99.90
44190;DHT22;29856;52.144;5.430;2022-10-30T16:42:57;18.80;99.90
44190;DHT22;29856;52.144;5.430;2022-10-30T16:48:00;18.60;99.90
44190;DHT22;29856;52.144;5.430;2022-10-30T16:50:33;18.50;99.90
44190;DHT22;29856;52.144;5.430;2022-10-30T16:53:22;18.50;99.90
44190;DHT22;29856;52.144;5.430;2022-10-30T16:55:48;18.40;99.90
44190;DHT22;29856;52.144;5.430;2022-10-30T16:58:14;18.30;99.90
44190;DHT22;29856;52.144;5.430;2022-10-30T17:00:41;18.30;99.90
44190;DHT22;29856;52.144;5.430;2022-10-30T17:03:12;18.30;99.90
44190;DHT22;29856;52.144;5.430;2022-10-30T17:05:39;18.20;99.90
44190;DHT22;29856;52.144;5.430;2022-10-30T17:08:29;18.20;99.90
44190;DHT22;29856;52.144;5.430;2022-10-30T17:11:00;18.20;99.90
44190;DHT22;29856;52.144;5.430;2022-10-30T17:13:33;18.20;99.90
44190;DHT22;29856;52.144;5.430;2022-10-30T17:18:52;18.10;99.90
44190;DHT22;29856;52.144;5.430;2022-10-30T17:21:28;18.10;99.90
44190;DHT22;29856;52.144;5.430;2022-10-30T17:23:58;18.10;99.90
44190;DHT22;29856;52.144;5.430;2022-10-30T17:26:25;18.00;99.90
44190;DHT22;29856;52.144;5.430;2022-10-30T17:28:52;18.00;99.90
44190;DHT22;29856;52.144;5.430;2022-10-30T17:31:21;17.90;99.90
44190;DHT22;29856;52.144;5.430;2022-10-30T17:34:03;17.90;99.90
44190;DHT22;29856;52.144;5.430;2022-10-30T17:36:29;17.90;99.90
44190;DHT22;29856;52.144;5.430;2022-10-30T17:38:55;17.90;99.90
44190;DHT22;29856;52.144;5.430;2022-10-30T17:41:20;17.90;99.90
44190;DHT22;29856;52.144;5.430;2022-10-30T17:43:47;17.90;99.90
44190;DHT22;29856;52.144;5.430;2022-10-30T17:46:13;18.00;99.90
44190;DHT22;29856;52.144;5.430;2022-10-30T17:48:39;18.00;99.90
44190;DHT22;29856;52.144;5.430;2022-10-30T17:51:04;18.00;99.90
44190;DHT22;29856;52.144;5.430;2022-10-30T17:53:30;17.90;99.90
44190;DHT22;29856;52.144;5.430;2022-10-30T17:56:02;17.90;99.90
44190;DHT22;29856;52.144;5.430;2022-10-30T17:58:28;18.00;99.90
44190;DHT22;29856;52.144;5.430;2022-10-30T18:00:57;17.90;99.90
44190;DHT22;29856;52.144;5.430;2022-10-30T18:03:22;17.90;99.90
44190;DHT22;29856;52.144;5.430;2022-10-30T18:05:48;17.90;99.90
44190;DHT22;29856;52.144;5.430;2022-10-30T18:08:14;17.90;99.90
44190;DHT22;29856;52.144;5.430;2022-10-30T18:10:39;17.90;99.90